Time;durP1;ratioP1;P1;durP2;ratioP2;P2;SDS_P1;SDS_P2;PMS_P1;PMS_P2;Temp;Humidity;BMP_temperature;BMP_pressure;BME280_temperature;BME280_humidity;BME280_pressure;Samples;Min_cycle;Max_cycle;Signal;HPM_P1;HPM_P2
2022/03/03 00:01:19;;;;;;;10.10;5.20;;;;;;;-0.31;84.88;98660.15;104969;1271;61029;-27
2022/03/03 00:04:13;;;;;;;12.60;6.10;;;;;;;0.19;82.51;98657.77;104872;1271;77171;-27
2022/03/03 00:06:43;;;;;;;13.20;7.40;;;;;;;0.08;82.34;98659.10;104998;1271;74674;-27
2022/03/03 00:09:12;;;;;;;8.80;5.10;;;;;;;-0.27;83.88;98654.01;104970;1274;74420;-27
2022/03/03 00:17:03;;;;;;;12.70;6.60;;;;;;;-0.75;86.23;98648.33;104953;1271;61035;-27
2022/03/03 00:19:58;;;;;;;12.80;7.40;;;;;;;-0.62;86.35;98640.64;104694;1274;74902;-27
2022/03/03 00:22:27;;;;;;;10.50;6.20;;;;;;;0.10;83.14;98642.33;105002;1271;75986;-28
2022/03/03 00:24:56;;;;;;;11.00;5.60;;;;;;;0.06;82.56;98639.73;105103;1271;74509;-27
2022/03/03 00:27:26;;;;;;;12.10;6.10;;;;;;;-0.06;82.96;98638.42;105121;1271;61138;-27
2022/03/03 00:29:58;;;;;;;13.30;7.50;;;;;;;-0.20;83.63;98638.51;105140;1271;61053;-27
2022/03/03 00:32:28;;;;;;;9.20;4.80;;;;;;;-0.40;84.54;98636.65;105035;1271;76613;-29
2022/03/03 00:35:17;;;;;;;6.10;3.90;;;;;;;-0.54;85.21;98637.39;104874;1271;73051;-27
2022/03/03 00:37:47;;;;;;;9.90;5.30;;;;;;;0.01;83.86;98638.27;104936;1271;72875;-27
2022/03/03 00:40:16;;;;;;;11.80;6.90;;;;;;;0.29;81.78;98639.73;104926;1270;61128;-28
2022/03/03 00:42:45;;;;;;;13.20;6.50;;;;;;;0.31;81.97;98633.20;104860;1272;61082;-27
2022/03/03 00:45:15;;;;;;;13.00;7.40;;;;;;;0.08;82.34;98629.08;105043;1271;73959;-27
2022/03/03 00:47:44;;;;;;;13.60;7.20;;;;;;;-0.19;83.55;98625.52;104941;1271;74006;-27
2022/03/03 00:50:13;;;;;;;13.10;6.40;;;;;;;-0.30;84.30;98617.77;104964;1271;72801;-27
2022/03/03 00:52:54;;;;;;;15.10;7.30;;;;;;;-0.38;84.34;98609.95;105121;1271;61019;-27
2022/03/03 00:56:27;;;;;;;11.50;5.70;;;;;;;-0.53;85.24;98611.42;105099;1271;61169;-27
2022/03/03 01:00:04;;;;;;;;;;;;;;;0.37;81.90;98608.81;105051;1271;75401;-27
2022/03/03 01:02:48;;;;;;;12.20;6.20;;;;;;;0.39;81.28;98611.98;104831;1271;76180;-28
2022/03/03 01:05:17;;;;;;;7.20;4.50;;;;;;;0.27;81.87;98612.33;104756;1271;72389;-29
2022/03/03 01:07:54;;;;;;;10.70;4.60;;;;;;;0.09;82.13;98612.46;104780;1271;61147;-27
2022/03/03 01:10:23;;;;;;;9.70;5.80;;;;;;;-0.11;83.24;98612.52;104857;1274;61163;-27
2022/03/03 01:12:52;;;;;;;12.40;7.10;;;;;;;-0.42;84.49;98612.84;104886;1271;74002;-27
2022/03/03 01:16:00;;;;;;;12.40;6.00;;;;;;;-0.48;85.35;98613.45;104712;1271;72999;-28
2022/03/03 01:18:52;;;;;;;8.50;5.10;;;;;;;0.32;82.89;98614.16;105077;1271;73310;-27
2022/03/03 01:21:21;;;;;;;10.10;6.00;;;;;;;0.57;81.32;98617.46;105023;1271;61829;-27
2022/03/03 01:24:16;;;;;;;8.20;4.30;;;;;;;0.41;81.42;98616.65;104894;1271;61042;-27
2022/03/03 01:26:49;;;;;;;13.10;6.70;;;;;;;0.11;82.28;98613.25;104843;1274;75576;-27
2022/03/03 01:29:18;;;;;;;10.20;5.00;;;;;;;-0.01;82.93;98611.55;104785;1273;76162;-27
2022/03/03 01:31:47;;;;;;;12.50;6.00;;;;;;;-0.24;83.77;98613.77;104806;1271;71712;-27
2022/03/03 01:34:42;;;;;;;11.60;6.40;;;;;;;-0.47;85.41;98613.58;104938;1271;61689;-27
2022/03/03 01:41:41;;;;;;;15.70;7.90;;;;;;;0.39;81.88;98607.55;104678;1277;75531;-27
2022/03/03 01:44:10;;;;;;;15.00;7.20;;;;;;;0.19;82.53;98601.77;104438;1278;75125;-28
2022/03/03 01:47:53;;;;;;;13.00;7.00;;;;;;;-0.00;83.46;98598.23;104594;1278;71369;-27
2022/03/03 01:50:23;;;;;;;14.10;6.90;;;;;;;-0.33;85.05;98591.13;104603;1277;61153;-28
2022/03/03 01:52:52;;;;;;;14.90;7.90;;;;;;;-0.50;86.05;98589.66;104544;1278;61132;-29
2022/03/03 01:55:21;;;;;;;17.10;8.80;;;;;;;0.03;84.56;98589.04;104644;1278;75375;-28
2022/03/03 01:58:24;;;;;;;12.90;7.30;;;;;;;0.33;82.88;98587.80;104488;1279;75981;-27
2022/03/03 02:00:53;;;;;;;13.40;7.10;;;;;;;0.20;82.86;98584.33;104479;1278;71396;-28
2022/03/03 02:03:22;;;;;;;15.60;7.60;;;;;;;-0.00;83.50;98581.85;104633;1278;61322;-29
2022/03/03 02:05:51;;;;;;;12.10;6.40;;;;;;;-0.21;84.88;98580.73;104425;1277;62089;-32
2022/03/03 02:08:22;;;;;;;15.80;7.40;;;;;;;-0.28;84.90;98579.33;104510;1271;74713;-30
2022/03/03 02:10:51;;;;;;;15.60;8.20;;;;;;;-0.47;85.75;98578.48;104856;1271;74572;-28
2022/03/03 02:13:20;;;;;;;16.40;8.40;;;;;;;-0.15;85.34;98574.30;104895;1271;74815;-29
2022/03/03 02:16:15;;;;;;;11.60;6.10;;;;;;;0.43;82.84;98578.30;104931;1271;61065;-31
2022/03/03 02:19:57;;;;;;;13.20;5.50;;;;;;;0.53;81.65;98576.81;104918;1271;61701;-28
2022/03/03 02:22:26;;;;;;;13.60;6.50;;;;;;;0.19;82.78;98574.98;104961;1270;75268;-27
2022/03/03 02:24:55;;;;;;;13.10;6.60;;;;;;;-0.13;84.18;98572.34;104985;1270;76042;-25
2022/03/03 02:27:34;;;;;;;17.50;8.70;;;;;;;-0.28;85.13;98567.57;105012;1270;72966;-25
2022/03/03 02:30:04;;;;;;;12.00;4.60;;;;;;;-0.39;85.58;98568.04;105093;1271;61840;-25
2022/03/03 02:32:33;;;;;;;16.60;7.00;;;;;;;0.12;84.38;98567.27;104902;1272;61121;-25
2022/03/03 02:35:03;;;;;;;14.00;6.30;;;;;;;0.61;82.18;98564.49;105013;1271;75482;-24
2022/03/03 02:37:43;;;;;;;16.90;6.80;;;;;;;0.70;81.22;98560.14;104658;1271;74519;-24
2022/03/03 02:40:20;;;;;;;17.30;7.20;;;;;;;0.50;81.64;98561.10;104753;1272;70627;-24
2022/03/03 02:42:50;;;;;;;14.00;6.70;;;;;;;0.08;83.45;98559.94;104712;1274;61102;-25
2022/03/03 02:46:12;;;;;;;14.50;7.00;;;;;;;-0.02;84.14;98555.29;104764;1274;61051;-25
2022/03/03 02:49:36;;;;;;;9.40;5.10;;;;;;;-0.39;86.01;98553.38;105122;1271;74429;-25
2022/03/03 02:52:06;;;;;;;13.10;6.10;;;;;;;0.07;84.65;98557.63;105119;1271;74996;-25
2022/03/03 02:54:36;;;;;;;13.00;6.40;;;;;;;0.56;82.56;98556.52;104850;1274;75280;-25
2022/03/03 02:59:53;;;;;;;12.90;5.30;;;;;;;0.30;83.03;98551.43;104836;1271;61205;-25
2022/03/03 03:02:47;;;;;;;14.20;6.70;;;;;;;0.13;83.35;98550.17;104653;1272;75318;-25
2022/03/03 03:06:28;;;;;;;15.20;7.30;;;;;;;-0.28;85.29;98541.08;104787;1271;74439;-25
2022/03/03 03:08:57;;;;;;;18.70;8.10;;;;;;;-0.34;86.34;98541.01;104978;1271;74101;-25
2022/03/03 03:11:26;;;;;;;18.50;8.50;;;;;;;0.11;84.57;98543.27;104721;1273;60957;-26
2022/03/03 03:14:04;;;;;;;17.00;6.90;;;;;;;0.37;83.20;98536.91;104769;1271;61140;-26
2022/03/03 03:16:33;;;;;;;14.70;7.40;;;;;;;0.24;83.76;98536.69;104698;1271;75293;-26
2022/03/03 03:22:52;;;;;;;9.90;4.50;;;;;;;-0.33;85.96;98529.38;105116;1274;74432;-26
2022/03/03 03:25:21;;;;;;;10.70;5.90;;;;;;;-0.47;86.76;98528.48;105113;1271;61137;-26
2022/03/03 03:28:42;;;;;;;12.10;6.00;;;;;;;-0.14;85.90;98523.39;105175;1271;61039;-26
2022/03/03 03:31:15;;;;;;;10.40;5.00;;;;;;;0.15;83.97;98518.65;104893;1274;74498;-26
2022/03/03 03:34:13;;;;;;;11.50;6.10;;;;;;;0.08;84.32;98519.50;105121;1271;75876;-26
2022/03/03 03:36:57;;;;;;;16.50;8.20;;;;;;;-0.11;84.95;98519.16;105072;1271;74435;-26
2022/03/03 03:39:50;;;;;;;20.90;9.40;;;;;;;-0.32;85.63;98514.52;104987;1271;61440;-26
2022/03/03 03:42:20;;;;;;;12.30;5.10;;;;;;;-0.30;86.09;98517.83;105081;1271;61055;-26
2022/03/03 03:45:15;;;;;;;14.00;6.30;;;;;;;0.23;84.61;98512.15;105074;1271;75317;-26
2022/03/03 03:49:13;;;;;;;14.20;6.10;;;;;;;0.31;83.35;98506.64;104560;1277;75768;-26
2022/03/03 03:52:16;;;;;;;16.40;6.90;;;;;;;-0.01;84.38;98502.53;104399;1277;73055;-27
2022/03/03 03:54:45;;;;;;;12.00;6.80;;;;;;;-0.35;85.84;98496.73;104574;1277;61093;-26
2022/03/03 03:57:17;;;;;;;12.60;6.30;;;;;;;-0.40;86.47;98496.29;104696;1277;62040;-26
2022/03/03 03:59:46;;;;;;;10.90;6.20;;;;;;;0.01;85.25;98494.91;104949;1274;74374;-26
2022/03/03 04:02:22;;;;;;;12.80;6.60;;;;;;;0.39;83.11;98493.09;105125;1271;75129;-28
2022/03/03 04:05:30;;;;;;;12.80;7.40;;;;;;;0.18;83.34;98491.73;104544;1274;71624;-26
2022/03/03 04:12:20;;;;;;;14.80;7.30;;;;;;;-0.31;85.75;98491.09;104747;1277;61173;-26
2022/03/03 04:15:14;;;;;;;9.30;4.80;;;;;;;-0.44;86.29;98491.66;104762;1277;74611;-26
2022/03/03 04:17:44;;;;;;;9.40;5.20;;;;;;;0.16;84.61;98488.76;104733;1277;76171;-26
2022/03/03 04:20:13;;;;;;;12.60;7.10;;;;;;;0.38;82.92;98489.05;104677;1275;74165;-26
2022/03/03 04:22:42;;;;;;;10.40;5.40;;;;;;;0.32;83.08;98485.60;104651;1277;61141;-26
2022/03/03 04:25:11;;;;;;;11.90;6.20;;;;;;;0.09;83.68;98484.10;104823;1275;61107;-26
2022/03/03 04:28:14;;;;;;;12.00;6.50;;;;;;;-0.19;84.78;98486.11;104761;1277;75082;-27
2022/03/03 04:30:43;;;;;;;8.00;4.60;;;;;;;-0.32;85.42;98488.59;104707;1277;74957;-27
2022/03/03 04:33:35;;;;;;;8.70;4.70;;;;;;;-0.14;85.31;98486.73;104791;1276;74552;-27
2022/03/03 04:36:18;;;;;;;12.30;7.00;;;;;;;0.55;82.26;98484.67;104479;1274;61090;-27
2022/03/03 04:42:56;;;;;;;11.70;5.60;;;;;;;0.11;83.37;98482.46;105007;1271;75466;-26
2022/03/03 04:45:30;;;;;;;11.00;6.60;;;;;;;-0.15;84.60;98479.77;104916;1271;75965;-27
2022/03/03 04:48:00;;;;;;;8.00;4.10;;;;;;;-0.32;85.79;98478.70;104981;1271;72609;-28
2022/03/03 04:50:30;;;;;;;10.10;6.20;;;;;;;-0.45;86.19;98479.94;104916;1271;61124;-27
2022/03/03 04:52:59;;;;;;;8.00;4.90;;;;;;;-0.07;84.88;98475.80;104902;1271;61853;-25
2022/03/03 04:55:42;;;;;;;16.40;9.40;;;;;;;0.36;82.92;98474.13;104585;1271;75490;-27
2022/03/03 04:58:12;;;;;;;10.10;6.30;;;;;;;0.48;82.49;98474.58;104615;1274;74376;-27
2022/03/03 05:01:02;;;;;;;13.50;7.40;;;;;;;0.15;83.13;98473.42;104835;1271;72042;-27
2022/03/03 05:03:32;;;;;;;10.50;6.80;;;;;;;-0.04;84.05;98471.09;104918;1271;61135;-27
2022/03/03 05:06:01;;;;;;;8.40;4.70;;;;;;;-0.26;84.94;98473.64;104913;1271;61099;-28
2022/03/03 05:08:34;;;;;;;10.50;6.20;;;;;;;-0.42;85.85;98470.77;104947;1271;75554;-28
2022/03/03 05:11:16;;;;;;;7.70;4.20;;;;;;;-0.08;85.17;98472.12;104859;1271;75090;-27
2022/03/03 05:14:14;;;;;;;8.20;5.30;;;;;;;0.25;83.62;98470.23;104643;1274;74043;-27
2022/03/03 05:16:54;;;;;;;6.70;4.00;;;;;;;0.22;83.66;98467.64;104943;1271;61534;-28
2022/03/03 05:19:33;;;;;;;10.90;6.40;;;;;;;-0.01;84.06;98473.00;104878;1271;61089;-28
2022/03/03 05:22:08;;;;;;;7.20;3.80;;;;;;;-0.19;85.02;98476.52;105044;1271;74628;-30
2022/03/03 05:24:38;;;;;;;7.50;4.70;;;;;;;-0.35;85.81;98475.91;105024;1271;75081;-28
2022/03/03 05:27:22;;;;;;;6.80;4.80;;;;;;;-0.12;85.70;98474.84;105075;1271;74286;-28
2022/03/03 05:30:04;;;;;;;8.50;4.70;;;;;;;0.39;83.44;98471.92;105076;1271;61076;-29
2022/03/03 05:32:35;;;;;;;10.30;5.60;;;;;;;0.49;82.53;98471.09;104872;1271;61647;-29
2022/03/03 05:35:04;;;;;;;9.20;5.80;;;;;;;0.25;83.25;98469.89;105146;1271;73818;-27
2022/03/03 05:37:34;;;;;;;7.50;5.10;;;;;;;0.23;83.48;98468.58;104834;1271;75817;-27
2022/03/03 05:40:04;;;;;;;6.70;4.40;;;;;;;-0.04;84.59;98466.30;104817;1271;71227;-27
2022/03/03 05:42:34;;;;;;;10.70;5.80;;;;;;;-0.14;85.62;98467.27;105076;1271;62946;-27
2022/03/03 05:45:10;;;;;;;10.20;5.50;;;;;;;0.40;83.73;98470.52;104611;1271;367648;-27
2022/03/03 05:47:48;;;;;;;12.20;5.60;;;;;;;0.41;83.08;98471.65;104808;1271;75612;-26
2022/03/03 05:54:57;;;;;;;12.10;6.60;;;;;;;-0.12;85.64;98461.04;105096;1274;74375;-27
2022/03/03 05:57:52;;;;;;;8.80;5.30;;;;;;;-0.22;86.11;98464.56;105140;1270;61892;-27
2022/03/03 06:01:00;;;;;;;11.70;6.80;;;;;;;0.21;84.88;98466.13;104600;1277;61781;-27
2022/03/03 06:03:59;;;;;;;6.20;3.90;;;;;;;0.59;83.19;98469.61;104570;1277;74140;-27
2022/03/03 06:10:31;;;;;;;10.70;5.20;;;;;;;0.30;84.16;98472.72;104656;1277;74421;-28
2022/03/03 06:13:30;;;;;;;11.50;6.60;;;;;;;0.13;84.78;98469.27;104300;1277;60981;-25
2022/03/03 06:16:03;;;;;;;14.10;7.70;;;;;;;-0.02;85.69;98472.17;104349;1277;62520;-24
2022/03/03 06:18:58;;;;;;;9.60;6.10;;;;;;;0.55;83.62;98474.23;104518;1277;72151;-25
2022/03/03 06:21:35;;;;;;;11.50;6.60;;;;;;;0.61;82.84;98470.35;104537;1277;75804;-25
2022/03/03 06:24:05;;;;;;;11.20;7.00;;;;;;;0.77;82.44;98471.12;104621;1277;74458;-26
2022/03/03 06:26:53;;;;;;;9.60;5.10;;;;;;;0.67;82.05;98468.66;104619;1277;61155;-24
2022/03/03 06:30:00;;;;;;;14.10;7.70;;;;;;;0.39;83.31;98466.45;104394;1281;61205;-23
2022/03/03 06:32:30;;;;;;;19.30;9.20;;;;;;;0.22;84.60;98465.07;104557;1277;74331;-23
2022/03/03 06:35:51;;;;;;;12.70;7.70;;;;;;;0.78;82.57;98470.54;104473;1277;77159;-23
2022/03/03 06:38:28;;;;;;;13.60;7.00;;;;;;;0.94;81.35;98467.48;104625;1277;73419;-23
2022/03/03 06:40:59;;;;;;;16.70;8.60;;;;;;;0.96;81.38;98472.17;104655;1277;61331;-24
2022/03/03 06:43:48;;;;;;;19.70;9.00;;;;;;;0.87;81.65;98465.98;104652;1277;61957;-23
2022/03/03 06:46:18;;;;;;;14.00;7.70;;;;;;;0.76;82.17;98465.01;104689;1277;74936;-24
2022/03/03 06:48:47;;;;;;;18.10;8.70;;;;;;;0.49;82.78;98463.23;104662;1277;76001;-24
2022/03/03 06:51:20;;;;;;;13.70;6.70;;;;;;;0.94;82.24;98465.63;104687;1277;75422;-24
2022/03/03 06:53:57;;;;;;;13.80;6.30;;;;;;;1.53;79.00;98464.48;104593;1277;61684;-26
2022/03/03 06:56:26;;;;;;;17.30;8.50;;;;;;;1.39;79.24;98466.36;104679;1277;61189;-26
2022/03/03 06:58:57;;;;;;;7.50;5.20;;;;;;;1.37;79.36;98467.68;104612;1277;75301;-26
2022/03/03 07:01:30;;;;;;;11.60;6.20;;;;;;;1.27;79.45;98469.73;104683;1277;75965;-26
2022/03/03 07:04:02;;;;;;;12.20;7.50;;;;;;;0.95;80.69;98469.83;104605;1276;74496;-26
2022/03/03 07:06:35;;;;;;;15.10;9.00;;;;;;;0.80;82.06;98467.89;104216;1274;61191;-26
2022/03/03 07:10:23;;;;;;;14.90;8.70;;;;;;;1.37;79.97;98467.49;101821;1308;600504;-25
2022/03/03 07:12:57;;;;;;;13.00;7.90;;;;;;;1.84;77.54;98465.83;104390;1284;62011;-26
2022/03/03 07:15:28;;;;;;;12.70;7.50;;;;;;;1.62;77.98;98467.20;103971;1283;61214;-26
2022/03/03 07:18:09;;;;;;;12.60;7.70;;;;;;;1.66;78.23;98468.02;104447;1284;74629;-27
2022/03/03 07:21:06;;;;;;;9.90;6.00;;;;;;;1.33;79.36;98468.55;104435;1284;73676;-27
2022/03/03 07:23:40;;;;;;;12.90;7.70;;;;;;;1.47;78.89;98468.85;104210;1281;314631;-26
2022/03/03 07:26:19;;;;;;;11.10;5.70;;;;;;;1.31;80.00;98461.35;104448;1281;61382;-25
2022/03/03 07:29:04;;;;;;;13.90;7.30;;;;;;;2.26;76.94;98463.38;104473;1281;61161;-25
2022/03/03 07:31:50;;;;;;;;;;;;;;;2.33;75.57;98464.69;104443;1281;71061;-25
2022/03/03 07:34:36;;;;;;;12.90;6.80;;;;;;;2.44;75.09;98460.98;104470;1281;74208;-25
2022/03/03 07:37:20;;;;;;;12.00;6.90;;;;;;;2.48;74.88;98459.42;104179;1281;73466;-25
2022/03/03 07:40:42;;;;;;;11.50;6.00;;;;;;;2.40;75.36;98455.89;104435;1281;61025;-25
2022/03/03 07:43:36;;;;;;;13.60;6.90;;;;;;;2.03;76.42;98454.39;104224;1281;61240;-25
2022/03/03 07:46:24;;;;;;;10.40;6.60;;;;;;;1.87;77.49;98453.92;104459;1281;74570;-25
2022/03/03 07:49:28;;;;;;;12.80;6.00;;;;;;;1.82;77.97;98453.27;104286;1281;74794;-25
2022/03/03 07:52:12;;;;;;;10.30;6.50;;;;;;;2.46;75.92;98448.02;104336;1281;74214;-25
2022/03/03 07:55:08;;;;;;;12.20;6.20;;;;;;;2.35;75.63;98448.79;104460;1281;61127;-25
2022/03/03 07:58:05;;;;;;;11.40;6.40;;;;;;;1.77;78.02;98454.26;104235;1282;62786;-25
2022/03/03 08:07:54;;;;;;;11.20;5.50;;;;;;;1.24;80.77;98454.85;104428;1281;72931;-25
2022/03/03 08:10:35;;;;;;;6.60;4.80;;;;;;;1.76;78.94;98452.95;104035;1281;61178;-27
2022/03/03 08:13:17;;;;;;;12.70;7.10;;;;;;;2.04;77.57;98449.88;104212;1281;61279;-25
2022/03/03 08:16:15;;;;;;;11.80;6.70;;;;;;;1.94;78.02;98448.23;104267;1281;74802;-26
2022/03/03 08:19:07;;;;;;;13.80;8.30;;;;;;;1.69;78.79;98445.81;104470;1282;76020;-26
2022/03/03 08:21:55;;;;;;;14.80;8.70;;;;;;;1.54;80.18;98447.29;104304;1281;74700;-26
2022/03/03 08:24:44;;;;;;;9.80;5.50;;;;;;;1.61;79.94;98450.36;103816;1281;60980;-25
2022/03/03 08:27:20;;;;;;;12.80;7.40;;;;;;;2.14;78.13;98445.21;104228;1281;61193;-25
2022/03/03 08:30:31;;;;;;;15.30;8.60;;;;;;;2.33;76.71;98441.73;104091;1281;72971;-26
2022/03/03 08:34:47;;;;;;;12.10;7.10;;;;;;;2.60;76.32;98442.97;104446;1281;72647;-25
2022/03/03 08:38:15;;;;;;;7.70;4.90;;;;;;;1.69;79.03;98443.56;104395;1284;75601;-25
2022/03/03 08:41:00;;;;;;;9.50;5.90;;;;;;;1.50;79.54;98444.42;104422;1281;61059;-25
2022/03/03 08:43:58;;;;;;;9.80;6.30;;;;;;;1.15;81.40;98443.71;104502;1281;61092;-25
2022/03/03 08:46:49;;;;;;;12.10;7.70;;;;;;;1.33;80.84;98443.63;104405;1281;72875;-25
2022/03/03 08:53:07;;;;;;;10.40;5.90;;;;;;;1.46;80.20;98434.02;104118;1281;74774;-25
2022/03/03 08:55:48;;;;;;;8.20;4.50;;;;;;;1.51;79.88;98439.25;104004;1281;61154;-25
2022/03/03 08:58:57;;;;;;;8.00;6.30;;;;;;;1.28;80.92;98433.96;104071;1281;61153;-25
2022/03/03 09:01:57;;;;;;;5.60;3.70;;;;;;;1.41;80.76;98432.23;104129;1281;71706;-25
2022/03/03 09:04:30;;;;;;;8.70;4.50;;;;;;;2.16;78.33;98433.61;103766;1281;73951;-25
2022/03/03 09:07:23;;;;;;;8.00;4.60;;;;;;;2.42;76.28;98431.99;104345;1278;75204;-25
2022/03/03 09:10:02;;;;;;;5.40;3.50;;;;;;;2.50;76.11;98436.67;104531;1278;61158;-25
2022/03/03 09:13:12;;;;;;;9.90;6.00;;;;;;;2.86;75.04;98435.42;104535;1277;61040;-25
2022/03/03 09:15:56;;;;;;;8.30;5.20;;;;;;;2.35;76.25;98430.16;104365;1278;72068;-25
2022/03/03 09:18:58;;;;;;;8.60;5.70;;;;;;;2.11;77.60;98425.52;104535;1278;74732;-25
2022/03/03 09:21:46;;;;;;;8.20;4.70;;;;;;;2.11;76.82;98427.74;104634;1278;74430;-25
2022/03/03 09:24:41;;;;;;;6.20;4.20;;;;;;;1.88;76.94;98426.27;104508;1278;61051;-26
2022/03/03 15:41:20;;;;;;;7.30;4.20;;;;;;;1.55;82.42;98381.00;104562;1277;60917;-30
2022/03/03 15:43:54;;;;;;;;;;;;;;;1.31;83.35;98384.87;104566;1277;75605;-30
2022/03/03 15:46:32;;;;;;;6.30;4.50;;;;;;;1.17;84.43;98385.27;104555;1277;75063;-30
2022/03/03 15:49:31;;;;;;;10.50;4.20;;;;;;;1.70;82.72;98386.21;104619;1277;71704;-31
2022/03/03 15:53:11;;;;;;;9.30;4.80;;;;;;;1.82;81.51;98386.40;104603;1278;61022;-29
2022/03/03 15:59:36;;;;;;;12.30;6.10;;;;;;;1.38;83.89;98383.81;105131;1274;74335;-30
2022/03/03 16:02:13;;;;;;;8.20;3.70;;;;;;;1.26;84.19;98388.55;105114;1274;72982;-30
2022/03/03 16:08:52;;;;;;;11.10;5.30;;;;;;;1.95;81.71;98388.94;104717;1275;61440;-29
2022/03/03 16:11:49;;;;;;;12.60;7.20;;;;;;;1.80;81.93;98385.14;104746;1274;63065;-31
2022/03/03 16:15:34;;;;;;;12.60;7.30;;;;;;;1.41;83.78;98391.17;104767;1274;72504;-31
2022/03/03 16:18:48;;;;;;;13.60;7.60;;;;;;;1.11;85.37;98394.16;104756;1274;74042;-29
2022/03/03 16:22:15;;;;;;;13.30;7.30;;;;;;;1.62;83.86;98390.39;104881;1275;74084;-29
2022/03/03 16:25:14;;;;;;;14.70;7.20;;;;;;;2.07;80.96;98389.63;105135;1274;61015;-29
2022/03/03 16:27:44;;;;;;;15.60;9.70;;;;;;;1.61;82.82;98392.85;104959;1274;61192;-29
2022/03/03 16:30:18;;;;;;;12.60;8.10;;;;;;;1.35;84.04;98401.44;104831;1274;72872;-30
2022/03/03 16:33:01;;;;;;;15.10;8.70;;;;;;;1.12;85.28;98403.49;104548;1277;74346;-30
2022/03/03 16:35:36;;;;;;;10.00;6.30;;;;;;;1.15;85.53;98401.46;104565;1274;70546;-30
2022/03/03 16:38:14;;;;;;;16.10;9.20;;;;;;;1.44;84.24;98403.15;104670;1274;61585;-29
2022/03/03 16:41:14;;;;;;;10.00;6.60;;;;;;;1.47;83.99;98407.26;104724;1274;61162;-29
2022/03/03 16:44:17;;;;;;;13.30;9.00;;;;;;;1.10;85.20;98404.45;104743;1274;73282;-29
2022/03/03 16:46:51;;;;;;;16.90;9.70;;;;;;;0.96;86.19;98408.09;104421;1274;75504;-29
2022/03/03 16:49:47;;;;;;;12.20;7.70;;;;;;;1.03;86.49;98409.10;104593;1274;71459;-29
2022/03/03 16:52:56;;;;;;;12.50;6.90;;;;;;;1.41;84.34;98404.33;104579;1274;63727;-28
2022/03/03 16:55:30;;;;;;;11.30;7.00;;;;;;;1.27;84.77;98406.98;104546;1274;61013;-29
2022/03/03 16:58:01;;;;;;;12.20;7.80;;;;;;;1.12;85.45;98409.34;104714;1275;76646;-30
2022/03/03 17:00:44;;;;;;;13.90;7.90;;;;;;;0.90;86.24;98413.52;104833;1274;76186;-29
2022/03/03 17:03:41;;;;;;;14.00;8.70;;;;;;;0.79;86.83;98404.34;104716;1274;72586;-29
2022/03/03 17:07:01;;;;;;;13.60;7.80;;;;;;;1.14;85.26;98413.84;105089;1274;61075;-29
2022/03/03 17:10:49;;;;;;;9.80;6.40;;;;;;;1.12;85.06;98409.97;105101;1274;61066;-28
2022/03/03 17:14:10;;;;;;;13.70;8.00;;;;;;;0.76;86.25;98417.84;105054;1274;74578;-30
2022/03/03 17:16:56;;;;;;;10.20;5.80;;;;;;;0.78;86.58;98417.56;104785;1274;74504;-28
2022/03/03 17:19:33;;;;;;;9.10;6.00;;;;;;;1.10;85.17;98422.92;104622;1275;72832;-30
2022/03/03 17:22:28;;;;;;;12.50;7.00;;;;;;;1.10;84.90;98418.98;104593;1274;61800;-30
2022/03/03 17:28:35;;;;;;;8.70;5.30;;;;;;;0.71;86.26;98421.30;105139;1274;73738;-29
2022/03/03 17:31:32;;;;;;;10.20;6.40;;;;;;;0.76;86.14;98425.16;104961;1274;73070;-30
2022/03/03 17:34:12;;;;;;;8.40;5.60;;;;;;;1.05;84.82;98426.73;104796;1274;73089;-29
2022/03/03 17:37:22;;;;;;;9.00;5.90;;;;;;;0.87;85.05;98422.58;105049;1274;61157;-29
2022/03/03 17:47:24;;;;;;;9.30;5.60;;;;;;;1.13;84.25;98419.03;105077;1274;74576;-29
2022/03/03 17:49:57;;;;;;;9.20;5.50;;;;;;;0.90;84.61;98420.36;105048;1274;72870;-29
2022/03/03 17:52:33;;;;;;;9.30;5.70;;;;;;;0.69;85.62;98421.61;104737;1273;61035;-29
2022/03/03 17:59:42;;;;;;;7.00;4.70;;;;;;;0.76;85.66;98420.07;105042;1274;73745;-29
2022/03/03 18:03:01;;;;;;;6.70;4.50;;;;;;;1.04;84.09;98420.70;104895;1274;73083;-29
2022/03/03 18:12:12;;;;;;;6.50;4.80;;;;;;;0.59;86.53;98422.78;104981;1274;61153;-29
2022/03/03 18:15:40;;;;;;;7.10;4.70;;;;;;;0.85;85.07;98421.99;104650;1274;73867;-29
2022/03/03 18:18:42;;;;;;;10.30;5.90;;;;;;;0.66;85.74;98422.42;105126;1274;74474;-29
2022/03/03 18:21:13;;;;;;;5.90;3.90;;;;;;;0.42;86.73;98424.84;104812;1274;72855;-30
2022/03/03 18:27:37;;;;;;;4.40;2.90;;;;;;;0.61;86.62;98429.68;104613;1274;61092;-31
2022/03/03 18:30:56;;;;;;;8.10;5.60;;;;;;;1.25;83.52;98427.44;105082;1274;72886;-29
2022/03/03 18:34:17;;;;;;;7.30;4.20;;;;;;;1.08;83.56;98428.64;105143;1274;74239;-29
2022/03/03 18:37:02;;;;;;;10.00;5.40;;;;;;;0.76;85.06;98429.79;104955;1274;70511;-29
2022/03/03 18:39:37;;;;;;;8.80;5.30;;;;;;;0.65;85.55;98430.50;104727;1277;61207;-29
2022/03/03 18:43:23;;;;;;;6.90;4.70;;;;;;;1.08;84.46;98429.38;105019;1274;61123;-29
2022/03/03 18:46:21;;;;;;;9.50;6.50;;;;;;;1.07;83.88;98431.29;104997;1274;72863;-29
2022/03/03 18:49:24;;;;;;;7.10;4.70;;;;;;;0.88;84.72;98430.20;104886;1274;72287;-29
2022/03/03 18:51:59;;;;;;;7.50;4.60;;;;;;;0.75;85.32;98433.44;105030;1274;72985;-29
2022/03/03 18:54:31;;;;;;;7.20;5.00;;;;;;;0.62;86.22;98432.91;104803;1272;61156;-28
2022/03/03 18:57:30;;;;;;;6.30;3.90;;;;;;;1.03;84.74;98439.54;104613;1274;61090;-29
2022/03/03 19:00:10;;;;;;;;;;;;;;;1.49;82.40;98437.30;104798;1274;74050;-29
2022/03/03 19:03:09;;;;;;;5.20;3.80;;;;;;;1.27;82.79;98435.02;104809;1272;74303;-29
2022/03/03 19:06:34;;;;;;;7.60;4.50;;;;;;;1.01;83.95;98435.32;105115;1274;73620;-29
2022/03/03 19:13:07;;;;;;;5.00;3.00;;;;;;;0.68;85.93;98440.78;105020;1273;61149;-30
2022/03/03 19:16:19;;;;;;;11.80;5.80;;;;;;;1.17;83.82;98441.01;104897;1274;73700;-29
2022/03/03 19:19:04;;;;;;;7.70;5.10;;;;;;;1.02;83.92;98444.71;104739;1274;73445;-31
2022/03/03 19:22:01;;;;;;;8.10;4.60;;;;;;;0.85;84.80;98445.94;104744;1273;73044;-29
2022/03/03 19:28:21;;;;;;;5.80;3.90;;;;;;;1.14;84.22;98448.70;104650;1274;61122;-31
2022/03/03 19:30:55;;;;;;;4.60;3.60;;;;;;;1.40;82.61;98448.19;104676;1274;75527;-33
2022/03/03 19:36:16;;;;;;;5.10;4.00;;;;;;;0.65;85.44;98447.77;104705;1274;73231;-30
2022/03/03 19:38:47;;;;;;;9.10;5.20;;;;;;;0.55;85.92;98448.61;104750;1274;61137;-30
2022/03/03 19:41:19;;;;;;;10.00;4.70;;;;;;;0.61;85.96;98447.98;104625;1274;61057;-29
2022/03/03 19:43:56;;;;;;;6.20;3.80;;;;;;;1.10;84.17;98450.41;105009;1274;73832;-32
2022/03/03 19:47:19;;;;;;;8.30;4.90;;;;;;;1.27;82.45;98449.22;105068;1274;73135;-34
2022/03/03 19:49:50;;;;;;;6.70;4.10;;;;;;;0.91;84.05;98450.55;104776;1274;74381;-32
2022/03/03 19:52:21;;;;;;;6.40;4.60;;;;;;;0.79;84.87;98450.64;104734;1274;61150;-31
2022/03/03 19:55:17;;;;;;;8.30;4.50;;;;;;;0.64;85.48;98448.19;104832;1274;61145;-31
2022/03/03 19:58:17;;;;;;;6.40;3.60;;;;;;;0.67;85.63;98448.88;104671;1273;72783;-29
2022/03/03 20:01:37;;;;;;;9.50;5.60;;;;;;;1.05;83.93;98445.58;104652;1275;73161;-30
2022/03/03 20:04:56;;;;;;;8.90;4.90;;;;;;;1.12;83.50;98445.38;105154;1274;71583;-30
2022/03/03 20:07:28;;;;;;;11.40;7.50;;;;;;;0.94;83.74;98445.64;104535;1274;61165;-30
2022/03/03 20:10:56;;;;;;;9.30;4.40;;;;;;;0.63;85.61;98443.61;105102;1273;61108;-29
2022/03/03 20:16:59;;;;;;;10.80;5.70;;;;;;;1.16;83.71;98444.50;105193;1273;75008;-30
2022/03/03 20:19:59;;;;;;;11.10;6.80;;;;;;;1.44;82.24;98444.38;104871;1274;71915;-30
2022/03/03 20:22:53;;;;;;;10.90;5.50;;;;;;;1.20;83.02;98451.48;104880;1273;61028;-30
2022/03/03 20:25:36;;;;;;;10.40;5.80;;;;;;;0.88;84.11;98450.03;104253;1277;61133;-29
2022/03/03 20:29:44;;;;;;;14.00;7.70;;;;;;;0.51;86.15;98444.19;104289;1277;72827;-30
2022/03/03 20:33:29;;;;;;;7.60;4.20;;;;;;;1.06;84.16;98446.55;104550;1277;76302;-29
2022/03/03 20:36:13;;;;;;;8.30;4.20;;;;;;;1.08;83.34;98446.45;104462;1280;73351;-30
2022/03/03 20:38:46;;;;;;;10.30;5.70;;;;;;;0.95;84.13;98449.99;104496;1277;61100;-29
2022/03/03 20:41:29;;;;;;;18.00;7.20;;;;;;;0.66;85.36;98446.35;104109;1277;61074;-30
2022/03/03 20:44:34;;;;;;;13.80;7.10;;;;;;;0.85;84.94;98444.52;104280;1277;75816;-29